sensor_id;sensor_type;location;lat;lon;timestamp;P1;durP1;ratioP1;P2;durP2;ratioP2
36233;SDS011;43467;50.890;5.982;2023-08-06T00:00:25;3.38;;;1.52;;
36233;SDS011;43467;50.890;5.982;2023-08-06T00:02:51;4.68;;;2.15;;
36233;SDS011;43467;50.890;5.982;2023-08-06T00:05:17;3.45;;;2.05;;
36233;SDS011;43467;50.890;5.982;2023-08-06T00:07:48;3.13;;;2.00;;
36233;SDS011;43467;50.890;5.982;2023-08-06T00:10:14;4.85;;;2.50;;
36233;SDS011;43467;50.890;5.982;2023-08-06T00:12:40;3.33;;;2.10;;
36233;SDS011;43467;50.890;5.982;2023-08-06T00:15:06;3.10;;;1.80;;
36233;SDS011;43467;50.890;5.982;2023-08-06T00:17:33;3.30;;;1.95;;
36233;SDS011;43467;50.890;5.982;2023-08-06T00:19:59;2.50;;;1.85;;
36233;SDS011;43467;50.890;5.982;2023-08-06T00:22:30;3.45;;;1.90;;
36233;SDS011;43467;50.890;5.982;2023-08-06T00:24:57;3.97;;;1.83;;
36233;SDS011;43467;50.890;5.982;2023-08-06T00:27:22;2.30;;;1.52;;
36233;SDS011;43467;50.890;5.982;2023-08-06T00:29:48;2.20;;;1.60;;
36233;SDS011;43467;50.890;5.982;2023-08-06T00:32:14;4.78;;;1.65;;
36233;SDS011;43467;50.890;5.982;2023-08-06T00:34:40;2.17;;;1.30;;
36233;SDS011;43467;50.890;5.982;2023-08-06T00:37:06;2.58;;;1.67;;
36233;SDS011;43467;50.890;5.982;2023-08-06T00:39:31;6.40;;;2.70;;
36233;SDS011;43467;50.890;5.982;2023-08-06T00:41:57;4.30;;;1.90;;
36233;SDS011;43467;50.890;5.982;2023-08-06T00:44:23;7.22;;;3.28;;
36233;SDS011;43467;50.890;5.982;2023-08-06T00:46:49;10.05;;;3.53;;
36233;SDS011;43467;50.890;5.982;2023-08-06T00:49:15;6.65;;;3.10;;
36233;SDS011;43467;50.890;5.982;2023-08-06T00:51:41;5.47;;;2.13;;
36233;SDS011;43467;50.890;5.982;2023-08-06T00:54:08;11.13;;;3.00;;
36233;SDS011;43467;50.890;5.982;2023-08-06T00:56:34;3.30;;;2.38;;
36233;SDS011;43467;50.890;5.982;2023-08-06T00:59:03;13.13;;;5.85;;
36233;SDS011;43467;50.890;5.982;2023-08-06T01:01:29;7.78;;;3.90;;
36233;SDS011;43467;50.890;5.982;2023-08-06T01:03:55;4.45;;;2.20;;
36233;SDS011;43467;50.890;5.982;2023-08-06T01:06:23;3.90;;;1.70;;
36233;SDS011;43467;50.890;5.982;2023-08-06T01:14:30;4.82;;;2.60;;
36233;SDS011;43467;50.890;5.982;2023-08-06T01:17:09;4.68;;;2.95;;
36233;SDS011;43467;50.890;5.982;2023-08-06T01:19:35;4.53;;;1.80;;
36233;SDS011;43467;50.890;5.982;2023-08-06T01:22:01;12.07;;;4.72;;
36233;SDS011;43467;50.890;5.982;2023-08-06T01:24:26;3.67;;;2.03;;
36233;SDS011;43467;50.890;5.982;2023-08-06T01:27:01;4.53;;;2.90;;
36233;SDS011;43467;50.890;5.982;2023-08-06T01:29:34;4.95;;;2.00;;
36233;SDS011;43467;50.890;5.982;2023-08-06T01:32:04;4.30;;;1.83;;
36233;SDS011;43467;50.890;5.982;2023-08-06T01:34:31;5.88;;;1.73;;
36233;SDS011;43467;50.890;5.982;2023-08-06T01:36:59;7.10;;;2.45;;
36233;SDS011;43467;50.890;5.982;2023-08-06T01:39:26;3.22;;;1.33;;
36233;SDS011;43467;50.890;5.982;2023-08-06T01:41:52;4.90;;;1.55;;
36233;SDS011;43467;50.890;5.982;2023-08-06T01:44:17;4.57;;;1.42;;
36233;SDS011;43467;50.890;5.982;2023-08-06T01:46:43;3.72;;;1.70;;
36233;SDS011;43467;50.890;5.982;2023-08-06T01:49:09;3.83;;;1.40;;
36233;SDS011;43467;50.890;5.982;2023-08-06T01:51:35;6.50;;;1.80;;
36233;SDS011;43467;50.890;5.982;2023-08-06T01:54:00;2.20;;;1.33;;
36233;SDS011;43467;50.890;5.982;2023-08-06T01:56:26;4.45;;;2.10;;
36233;SDS011;43467;50.890;5.982;2023-08-06T01:58:52;2.15;;;1.40;;
36233;SDS011;43467;50.890;5.982;2023-08-06T02:01:17;2.83;;;1.50;;
36233;SDS011;43467;50.890;5.982;2023-08-06T02:03:43;4.20;;;1.80;;
36233;SDS011;43467;50.890;5.982;2023-08-06T02:06:08;5.18;;;2.03;;
36233;SDS011;43467;50.890;5.982;2023-08-06T02:08:34;8.82;;;3.25;;
36233;SDS011;43467;50.890;5.982;2023-08-06T02:11:00;5.78;;;1.85;;
36233;SDS011;43467;50.890;5.982;2023-08-06T02:13:26;3.50;;;1.70;;
36233;SDS011;43467;50.890;5.982;2023-08-06T02:15:52;4.20;;;1.17;;
36233;SDS011;43467;50.890;5.982;2023-08-06T02:18:18;3.95;;;1.40;;
36233;SDS011;43467;50.890;5.982;2023-08-06T02:20:43;3.05;;;1.50;;
36233;SDS011;43467;50.890;5.982;2023-08-06T02:23:09;3.38;;;1.17;;
36233;SDS011;43467;50.890;5.982;2023-08-06T02:25:35;2.72;;;1.80;;
36233;SDS011;43467;50.890;5.982;2023-08-06T02:28:01;3.35;;;1.35;;
36233;SDS011;43467;50.890;5.982;2023-08-06T02:30:26;3.38;;;1.30;;
36233;SDS011;43467;50.890;5.982;2023-08-06T02:32:52;2.75;;;1.80;;
36233;SDS011;43467;50.890;5.982;2023-08-06T02:35:17;2.35;;;1.45;;
36233;SDS011;43467;50.890;5.982;2023-08-06T02:37:43;2.38;;;1.30;;
36233;SDS011;43467;50.890;5.982;2023-08-06T02:40:09;5.15;;;1.20;;
36233;SDS011;43467;50.890;5.982;2023-08-06T02:42:35;3.78;;;1.45;;
36233;SDS011;43467;50.890;5.982;2023-08-06T02:45:00;3.25;;;1.20;;
36233;SDS011;43467;50.890;5.982;2023-08-06T02:47:26;3.15;;;1.10;;
36233;SDS011;43467;50.890;5.982;2023-08-06T02:49:51;3.42;;;1.50;;
36233;SDS011;43467;50.890;5.982;2023-08-06T02:52:17;1.50;;;0.95;;
36233;SDS011;43467;50.890;5.982;2023-08-06T02:54:43;2.58;;;1.20;;
36233;SDS011;43467;50.890;5.982;2023-08-06T02:57:09;3.17;;;1.40;;
36233;SDS011;43467;50.890;5.982;2023-08-06T02:59:34;1.60;;;1.00;;
36233;SDS011;43467;50.890;5.982;2023-08-06T03:02:00;2.92;;;1.35;;
36233;SDS011;43467;50.890;5.982;2023-08-06T03:04:25;3.95;;;1.02;;
36233;SDS011;43467;50.890;5.982;2023-08-06T03:06:51;4.10;;;1.10;;
36233;SDS011;43467;50.890;5.982;2023-08-06T03:09:17;2.25;;;0.75;;
36233;SDS011;43467;50.890;5.982;2023-08-06T03:11:43;2.92;;;1.00;;
36233;SDS011;43467;50.890;5.982;2023-08-06T03:14:09;3.05;;;0.90;;
36233;SDS011;43467;50.890;5.982;2023-08-06T03:16:35;1.95;;;1.02;;
36233;SDS011;43467;50.890;5.982;2023-08-06T03:19:01;4.47;;;1.17;;
36233;SDS011;43467;50.890;5.982;2023-08-06T03:21:26;2.28;;;0.68;;
36233;SDS011;43467;50.890;5.982;2023-08-06T03:23:52;2.22;;;0.70;;
36233;SDS011;43467;50.890;5.982;2023-08-06T03:26:17;1.38;;;0.70;;
36233;SDS011;43467;50.890;5.982;2023-08-06T03:28:43;3.45;;;0.93;;
36233;SDS011;43467;50.890;5.982;2023-08-06T03:31:09;1.67;;;0.90;;
36233;SDS011;43467;50.890;5.982;2023-08-06T03:33:34;1.83;;;0.88;;
36233;SDS011;43467;50.890;5.982;2023-08-06T03:36:00;2.20;;;1.67;;
36233;SDS011;43467;50.890;5.982;2023-08-06T03:38:26;1.77;;;0.65;;
36233;SDS011;43467;50.890;5.982;2023-08-06T03:40:52;0.80;;;0.60;;
36233;SDS011;43467;50.890;5.982;2023-08-06T03:43:18;2.67;;;0.70;;
36233;SDS011;43467;50.890;5.982;2023-08-06T03:45:43;3.65;;;0.90;;
36233;SDS011;43467;50.890;5.982;2023-08-06T03:48:09;1.63;;;0.82;;
36233;SDS011;43467;50.890;5.982;2023-08-06T03:50:35;2.65;;;0.90;;
36233;SDS011;43467;50.890;5.982;2023-08-06T03:53:00;2.50;;;1.30;;
36233;SDS011;43467;50.890;5.982;2023-08-06T03:55:26;2.10;;;0.90;;
36233;SDS011;43467;50.890;5.982;2023-08-06T03:57:52;1.88;;;1.00;;
36233;SDS011;43467;50.890;5.982;2023-08-06T04:00:18;2.75;;;0.80;;
36233;SDS011;43467;50.890;5.982;2023-08-06T04:02:43;1.73;;;0.95;;
36233;SDS011;43467;50.890;5.982;2023-08-06T04:05:09;3.08;;;1.00;;
36233;SDS011;43467;50.890;5.982;2023-08-06T04:07:35;2.72;;;0.88;;
36233;SDS011;43467;50.890;5.982;2023-08-06T04:10:02;1.40;;;1.00;;
36233;SDS011;43467;50.890;5.982;2023-08-06T04:12:28;2.95;;;1.00;;
36233;SDS011;43467;50.890;5.982;2023-08-06T04:14:56;3.28;;;1.20;;
36233;SDS011;43467;50.890;5.982;2023-08-06T04:17:23;2.85;;;0.85;;
36233;SDS011;43467;50.890;5.982;2023-08-06T04:19:52;2.25;;;0.90;;
36233;SDS011;43467;50.890;5.982;2023-08-06T04:22:20;1.50;;;1.10;;
36233;SDS011;43467;50.890;5.982;2023-08-06T04:24:46;1.92;;;1.20;;
36233;SDS011;43467;50.890;5.982;2023-08-06T04:27:12;1.73;;;1.27;;
36233;SDS011;43467;50.890;5.982;2023-08-06T04:29:40;1.85;;;1.20;;
36233;SDS011;43467;50.890;5.982;2023-08-06T04:32:07;2.83;;;1.08;;
36233;SDS011;43467;50.890;5.982;2023-08-06T04:34:34;3.80;;;1.50;;
36233;SDS011;43467;50.890;5.982;2023-08-06T04:37:01;2.17;;;1.48;;
36233;SDS011;43467;50.890;5.982;2023-08-06T04:39:27;1.67;;;1.05;;
36233;SDS011;43467;50.890;5.982;2023-08-06T04:41:52;3.08;;;1.45;;
36233;SDS011;43467;50.890;5.982;2023-08-06T04:44:18;1.98;;;1.40;;
36233;SDS011;43467;50.890;5.982;2023-08-06T04:46:44;1.65;;;1.42;;
36233;SDS011;43467;50.890;5.982;2023-08-06T04:49:11;2.08;;;1.40;;
36233;SDS011;43467;50.890;5.982;2023-08-06T04:51:37;3.10;;;1.55;;
36233;SDS011;43467;50.890;5.982;2023-08-06T04:54:03;8.35;;;1.92;;
36233;SDS011;43467;50.890;5.982;2023-08-06T04:56:29;3.30;;;2.00;;
36233;SDS011;43467;50.890;5.982;2023-08-06T04:58:55;3.90;;;2.25;;
36233;SDS011;43467;50.890;5.982;2023-08-06T05:01:21;3.67;;;2.08;;
36233;SDS011;43467;50.890;5.982;2023-08-06T05:03:47;3.03;;;2.30;;
36233;SDS011;43467;50.890;5.982;2023-08-06T05:06:12;4.35;;;2.75;;
36233;SDS011;43467;50.890;5.982;2023-08-06T05:08:38;3.45;;;2.75;;
36233;SDS011;43467;50.890;5.982;2023-08-06T05:11:03;7.18;;;3.42;;
36233;SDS011;43467;50.890;5.982;2023-08-06T05:13:29;3.42;;;2.65;;
36233;SDS011;43467;50.890;5.982;2023-08-06T05:15:55;5.03;;;3.03;;
36233;SDS011;43467;50.890;5.982;2023-08-06T05:18:21;5.70;;;3.35;;
36233;SDS011;43467;50.890;5.982;2023-08-06T05:20:47;8.40;;;3.90;;
36233;SDS011;43467;50.890;5.982;2023-08-06T05:23:12;5.10;;;3.55;;
36233;SDS011;43467;50.890;5.982;2023-08-06T05:25:38;8.25;;;3.65;;
36233;SDS011;43467;50.890;5.982;2023-08-06T05:28:04;4.68;;;3.53;;
36233;SDS011;43467;50.890;5.982;2023-08-06T05:30:30;6.10;;;3.72;;
36233;SDS011;43467;50.890;5.982;2023-08-06T05:32:55;6.70;;;4.18;;
36233;SDS011;43467;50.890;5.982;2023-08-06T05:35:21;7.13;;;4.10;;
36233;SDS011;43467;50.890;5.982;2023-08-06T05:37:47;5.95;;;4.40;;
36233;SDS011;43467;50.890;5.982;2023-08-06T05:40:13;8.02;;;4.30;;
36233;SDS011;43467;50.890;5.982;2023-08-06T05:42:39;6.05;;;3.72;;
36233;SDS011;43467;50.890;5.982;2023-08-06T05:45:06;11.35;;;4.00;;
36233;SDS011;43467;50.890;5.982;2023-08-06T05:47:32;7.00;;;4.25;;
36233;SDS011;43467;50.890;5.982;2023-08-06T05:49:58;7.55;;;4.68;;
36233;SDS011;43467;50.890;5.982;2023-08-06T05:52:23;11.48;;;4.32;;
36233;SDS011;43467;50.890;5.982;2023-08-06T05:54:49;10.25;;;4.03;;
36233;SDS011;43467;50.890;5.982;2023-08-06T05:57:15;5.88;;;4.00;;
36233;SDS011;43467;50.890;5.982;2023-08-06T05:59:41;7.40;;;4.72;;
36233;SDS011;43467;50.890;5.982;2023-08-06T06:02:07;9.00;;;4.55;;
36233;SDS011;43467;50.890;5.982;2023-08-06T06:04:33;7.13;;;4.30;;
36233;SDS011;43467;50.890;5.982;2023-08-06T06:06:59;5.72;;;4.60;;
36233;SDS011;43467;50.890;5.982;2023-08-06T06:09:24;18.65;;;5.03;;
36233;SDS011;43467;50.890;5.982;2023-08-06T06:11:50;10.18;;;4.90;;
36233;SDS011;43467;50.890;5.982;2023-08-06T06:14:16;7.20;;;5.00;;
36233;SDS011;43467;50.890;5.982;2023-08-06T06:16:44;7.93;;;4.82;;
36233;SDS011;43467;50.890;5.982;2023-08-06T06:19:10;8.52;;;5.28;;
36233;SDS011;43467;50.890;5.982;2023-08-06T06:21:36;10.27;;;5.10;;
36233;SDS011;43467;50.890;5.982;2023-08-06T06:24:04;9.00;;;5.50;;
36233;SDS011;43467;50.890;5.982;2023-08-06T06:26:30;6.18;;;5.30;;
36233;SDS011;43467;50.890;5.982;2023-08-06T06:28:57;6.47;;;4.90;;
36233;SDS011;43467;50.890;5.982;2023-08-06T06:31:23;10.55;;;4.85;;
36233;SDS011;43467;50.890;5.982;2023-08-06T06:33:48;4.57;;;3.92;;
36233;SDS011;43467;50.890;5.982;2023-08-06T06:36:14;5.10;;;3.80;;
36233;SDS011;43467;50.890;5.982;2023-08-06T06:38:41;5.20;;;3.60;;
36233;SDS011;43467;50.890;5.982;2023-08-06T06:41:07;4.28;;;3.47;;
36233;SDS011;43467;50.890;5.982;2023-08-06T06:43:33;6.25;;;3.10;;
36233;SDS011;43467;50.890;5.982;2023-08-06T06:45:59;5.55;;;3.35;;
36233;SDS011;43467;50.890;5.982;2023-08-06T06:48:28;5.22;;;3.90;;
36233;SDS011;43467;50.890;5.982;2023-08-06T06:50:55;4.78;;;3.17;;
36233;SDS011;43467;50.890;5.982;2023-08-06T06:53:21;3.13;;;2.83;;
36233;SDS011;43467;50.890;5.982;2023-08-06T06:55:52;3.05;;;2.28;;
36233;SDS011;43467;50.890;5.982;2023-08-06T06:58:20;2.30;;;1.60;;
36233;SDS011;43467;50.890;5.982;2023-08-06T07:00:47;1.60;;;1.48;;
36233;SDS011;43467;50.890;5.982;2023-08-06T07:03:14;1.50;;;1.40;;
36233;SDS011;43467;50.890;5.982;2023-08-06T07:05:40;1.27;;;1.17;;
36233;SDS011;43467;50.890;5.982;2023-08-06T07:08:06;2.33;;;1.10;;
36233;SDS011;43467;50.890;5.982;2023-08-06T07:10:31;1.27;;;1.17;;
36233;SDS011;43467;50.890;5.982;2023-08-06T07:12:57;2.47;;;1.48;;
36233;SDS011;43467;50.890;5.982;2023-08-06T07:15:23;3.25;;;1.80;;
36233;SDS011;43467;50.890;5.982;2023-08-06T07:17:49;4.55;;;2.10;;
36233;SDS011;43467;50.890;5.982;2023-08-06T07:20:15;4.97;;;2.72;;
36233;SDS011;43467;50.890;5.982;2023-08-06T07:22:41;3.60;;;1.92;;
36233;SDS011;43467;50.890;5.982;2023-08-06T07:25:06;2.70;;;1.50;;
36233;SDS011;43467;50.890;5.982;2023-08-06T07:27:32;2.65;;;1.40;;
36233;SDS011;43467;50.890;5.982;2023-08-06T07:29:58;2.53;;;1.73;;
36233;SDS011;43467;50.890;5.982;2023-08-06T07:32:24;4.50;;;2.10;;
36233;SDS011;43467;50.890;5.982;2023-08-06T07:34:50;2.35;;;2.10;;
36233;SDS011;43467;50.890;5.982;2023-08-06T07:37:18;7.40;;;2.35;;
36233;SDS011;43467;50.890;5.982;2023-08-06T07:39:43;3.65;;;2.50;;
36233;SDS011;43467;50.890;5.982;2023-08-06T07:42:10;3.25;;;1.92;;
36233;SDS011;43467;50.890;5.982;2023-08-06T07:44:36;2.17;;;1.70;;
36233;SDS011;43467;50.890;5.982;2023-08-06T07:47:01;2.47;;;1.40;;
36233;SDS011;43467;50.890;5.982;2023-08-06T07:49:27;1.30;;;1.20;;
36233;SDS011;43467;50.890;5.982;2023-08-06T07:51:52;0.80;;;0.80;;
36233;SDS011;43467;50.890;5.982;2023-08-06T07:54:18;1.70;;;0.88;;
36233;SDS011;43467;50.890;5.982;2023-08-06T07:56:43;2.05;;;0.93;;
36233;SDS011;43467;50.890;5.982;2023-08-06T07:59:09;0.95;;;0.70;;
36233;SDS011;43467;50.890;5.982;2023-08-06T08:01:35;1.27;;;0.95;;
36233;SDS011;43467;50.890;5.982;2023-08-06T08:04:01;0.70;;;0.70;;
36233;SDS011;43467;50.890;5.982;2023-08-06T08:06:26;1.08;;;0.90;;
36233;SDS011;43467;50.890;5.982;2023-08-06T08:08:52;1.20;;;0.80;;
36233;SDS011;43467;50.890;5.982;2023-08-06T08:11:18;1.10;;;0.90;;
36233;SDS011;43467;50.890;5.982;2023-08-06T08:13:46;1.38;;;1.27;;
36233;SDS011;43467;50.890;5.982;2023-08-06T08:16:11;1.98;;;1.33;;
36233;SDS011;43467;50.890;5.982;2023-08-06T08:18:37;2.42;;;1.98;;
36233;SDS011;43467;50.890;5.982;2023-08-06T08:21:03;4.15;;;2.30;;
36233;SDS011;43467;50.890;5.982;2023-08-06T08:23:28;4.70;;;2.70;;
36233;SDS011;43467;50.890;5.982;2023-08-06T08:25:56;3.95;;;3.10;;
36233;SDS011;43467;50.890;5.982;2023-08-06T08:28:22;5.55;;;3.28;;
36233;SDS011;43467;50.890;5.982;2023-08-06T08:30:48;5.80;;;4.15;;
36233;SDS011;43467;50.890;5.982;2023-08-06T08:33:13;10.02;;;4.07;;
36233;SDS011;43467;50.890;5.982;2023-08-06T08:35:39;5.50;;;3.90;;
36233;SDS011;43467;50.890;5.982;2023-08-06T08:38:05;5.57;;;3.40;;
36233;SDS011;43467;50.890;5.982;2023-08-06T08:40:32;4.75;;;3.20;;
36233;SDS011;43467;50.890;5.982;2023-08-06T08:42:58;5.25;;;3.13;;
36233;SDS011;43467;50.890;5.982;2023-08-06T08:45:26;5.47;;;3.22;;
36233;SDS011;43467;50.890;5.982;2023-08-06T08:47:53;5.00;;;2.55;;
36233;SDS011;43467;50.890;5.982;2023-08-06T08:50:19;15.27;;;3.70;;
36233;SDS011;43467;50.890;5.982;2023-08-06T08:52:45;4.70;;;2.95;;
36233;SDS011;43467;50.890;5.982;2023-08-06T08:55:14;8.63;;;2.85;;
36233;SDS011;43467;50.890;5.982;2023-08-06T08:57:40;6.22;;;3.00;;
36233;SDS011;43467;50.890;5.982;2023-08-06T09:00:06;4.10;;;2.72;;
36233;SDS011;43467;50.890;5.982;2023-08-06T09:02:33;4.85;;;2.00;;
36233;SDS011;43467;50.890;5.982;2023-08-06T09:05:02;6.22;;;2.28;;
36233;SDS011;43467;50.890;5.982;2023-08-06T09:07:34;4.18;;;2.20;;
36233;SDS011;43467;50.890;5.982;2023-08-06T09:10:04;5.13;;;2.47;;
36233;SDS011;43467;50.890;5.982;2023-08-06T09:12:32;4.38;;;2.35;;
36233;SDS011;43467;50.890;5.982;2023-08-06T09:14:58;5.82;;;2.75;;
36233;SDS011;43467;50.890;5.982;2023-08-06T09:17:23;5.78;;;2.33;;
36233;SDS011;43467;50.890;5.982;2023-08-06T09:19:49;9.23;;;2.95;;
36233;SDS011;43467;50.890;5.982;2023-08-06T09:22:15;3.47;;;2.20;;
36233;SDS011;43467;50.890;5.982;2023-08-06T09:24:41;6.03;;;2.17;;
36233;SDS011;43467;50.890;5.982;2023-08-06T09:27:11;3.97;;;1.90;;
36233;SDS011;43467;50.890;5.982;2023-08-06T09:29:40;7.30;;;2.63;;
36233;SDS011;43467;50.890;5.982;2023-08-06T09:32:07;6.53;;;2.05;;
36233;SDS011;43467;50.890;5.982;2023-08-06T09:34:32;6.82;;;2.20;;
36233;SDS011;43467;50.890;5.982;2023-08-06T09:36:58;6.57;;;2.10;;
36233;SDS011;43467;50.890;5.982;2023-08-06T09:39:28;10.00;;;2.78;;
36233;SDS011;43467;50.890;5.982;2023-08-06T09:42:01;9.63;;;2.55;;
36233;SDS011;43467;50.890;5.982;2023-08-06T09:44:29;5.38;;;2.00;;
36233;SDS011;43467;50.890;5.982;2023-08-06T09:46:57;6.38;;;2.35;;
36233;SDS011;43467;50.890;5.982;2023-08-06T09:49:28;5.78;;;2.22;;
36233;SDS011;43467;50.890;5.982;2023-08-06T09:52:08;12.40;;;2.88;;
36233;SDS011;43467;50.890;5.982;2023-08-06T09:54:36;9.85;;;3.05;;
36233;SDS011;43467;50.890;5.982;2023-08-06T09:57:03;10.95;;;2.05;;
36233;SDS011;43467;50.890;5.982;2023-08-06T09:59:30;7.68;;;1.95;;
36233;SDS011;43467;50.890;5.982;2023-08-06T10:01:58;9.43;;;2.33;;
36233;SDS011;43467;50.890;5.982;2023-08-06T10:04:24;8.30;;;2.58;;
36233;SDS011;43467;50.890;5.982;2023-08-06T10:06:50;6.28;;;2.00;;
36233;SDS011;43467;50.890;5.982;2023-08-06T10:09:17;6.10;;;2.10;;
36233;SDS011;43467;50.890;5.982;2023-08-06T10:11:44;9.20;;;2.47;;
36233;SDS011;43467;50.890;5.982;2023-08-06T10:14:16;8.40;;;2.63;;
36233;SDS011;43467;50.890;5.982;2023-08-06T10:16:46;10.95;;;2.72;;
36233;SDS011;43467;50.890;5.982;2023-08-06T10:19:12;7.28;;;2.65;;
36233;SDS011;43467;50.890;5.982;2023-08-06T10:21:40;10.73;;;3.08;;
36233;SDS011;43467;50.890;5.982;2023-08-06T10:24:06;8.15;;;2.75;;
36233;SDS011;43467;50.890;5.982;2023-08-06T10:26:36;5.93;;;2.42;;
36233;SDS011;43467;50.890;5.982;2023-08-06T10:29:08;9.98;;;2.90;;
36233;SDS011;43467;50.890;5.982;2023-08-06T10:32:03;11.13;;;2.88;;
36233;SDS011;43467;50.890;5.982;2023-08-06T10:37:35;8.93;;;2.63;;
36233;SDS011;43467;50.890;5.982;2023-08-06T10:40:02;9.73;;;2.50;;
36233;SDS011;43467;50.890;5.982;2023-08-06T10:42:29;8.90;;;2.78;;
36233;SDS011;43467;50.890;5.982;2023-08-06T10:45:11;14.93;;;2.72;;
36233;SDS011;43467;50.890;5.982;2023-08-06T10:47:41;6.80;;;2.15;;
36233;SDS011;43467;50.890;5.982;2023-08-06T10:50:10;7.05;;;2.42;;
36233;SDS011;43467;50.890;5.982;2023-08-06T10:52:37;5.28;;;2.42;;
36233;SDS011;43467;50.890;5.982;2023-08-06T10:55:03;10.00;;;2.55;;
36233;SDS011;43467;50.890;5.982;2023-08-06T10:57:29;8.90;;;2.40;;
36233;SDS011;43467;50.890;5.982;2023-08-06T10:59:55;8.93;;;2.40;;
36233;SDS011;43467;50.890;5.982;2023-08-06T11:02:20;9.57;;;2.78;;
36233;SDS011;43467;50.890;5.982;2023-08-06T11:04:47;7.70;;;2.75;;
36233;SDS011;43467;50.890;5.982;2023-08-06T11:07:13;7.57;;;2.08;;
36233;SDS011;43467;50.890;5.982;2023-08-06T11:09:39;7.97;;;2.45;;
36233;SDS011;43467;50.890;5.982;2023-08-06T11:12:11;8.65;;;2.08;;
36233;SDS011;43467;50.890;5.982;2023-08-06T11:14:37;4.88;;;2.10;;
36233;SDS011;43467;50.890;5.982;2023-08-06T11:17:04;8.13;;;2.03;;
36233;SDS011;43467;50.890;5.982;2023-08-06T11:19:31;5.43;;;1.58;;
36233;SDS011;43467;50.890;5.982;2023-08-06T11:21:57;5.60;;;1.60;;
36233;SDS011;43467;50.890;5.982;2023-08-06T11:24:24;4.00;;;1.40;;
36233;SDS011;43467;50.890;5.982;2023-08-06T11:26:50;4.63;;;1.52;;
36233;SDS011;43467;50.890;5.982;2023-08-06T11:29:15;5.68;;;1.65;;
36233;SDS011;43467;50.890;5.982;2023-08-06T11:31:41;5.68;;;1.85;;
36233;SDS011;43467;50.890;5.982;2023-08-06T11:34:07;4.25;;;1.45;;
36233;SDS011;43467;50.890;5.982;2023-08-06T11:36:34;3.85;;;1.85;;
36233;SDS011;43467;50.890;5.982;2023-08-06T11:39:05;4.72;;;1.30;;
36233;SDS011;43467;50.890;5.982;2023-08-06T11:41:35;4.63;;;1.50;;
36233;SDS011;43467;50.890;5.982;2023-08-06T11:44:03;4.03;;;1.95;;
36233;SDS011;43467;50.890;5.982;2023-08-06T11:46:29;2.70;;;1.55;;
36233;SDS011;43467;50.890;5.982;2023-08-06T11:48:58;4.15;;;1.63;;
36233;SDS011;43467;50.890;5.982;2023-08-06T11:51:24;4.32;;;1.50;;
36233;SDS011;43467;50.890;5.982;2023-08-06T11:53:56;2.92;;;1.40;;
36233;SDS011;43467;50.890;5.982;2023-08-06T11:56:23;2.60;;;1.23;;
36233;SDS011;43467;50.890;5.982;2023-08-06T11:58:50;4.18;;;1.40;;
36233;SDS011;43467;50.890;5.982;2023-08-06T12:01:15;4.20;;;1.52;;
36233;SDS011;43467;50.890;5.982;2023-08-06T12:03:41;2.97;;;1.10;;
36233;SDS011;43467;50.890;5.982;2023-08-06T12:06:07;2.75;;;1.00;;
36233;SDS011;43467;50.890;5.982;2023-08-06T12:08:32;3.83;;;1.35;;
36233;SDS011;43467;50.890;5.982;2023-08-06T12:10:58;2.45;;;1.20;;
36233;SDS011;43467;50.890;5.982;2023-08-06T12:13:24;1.58;;;1.10;;
36233;SDS011;43467;50.890;5.982;2023-08-06T12:15:50;2.00;;;1.02;;
36233;SDS011;43467;50.890;5.982;2023-08-06T12:18:18;4.95;;;1.65;;
36233;SDS011;43467;50.890;5.982;2023-08-06T12:20:49;7.38;;;1.95;;
36233;SDS011;43467;50.890;5.982;2023-08-06T12:23:15;4.07;;;1.88;;
36233;SDS011;43467;50.890;5.982;2023-08-06T12:25:41;2.28;;;1.45;;
36233;SDS011;43467;50.890;5.982;2023-08-06T12:28:07;4.20;;;2.08;;
36233;SDS011;43467;50.890;5.982;2023-08-06T12:30:34;4.80;;;2.03;;
36233;SDS011;43467;50.890;5.982;2023-08-06T12:33:01;8.63;;;2.50;;
36233;SDS011;43467;50.890;5.982;2023-08-06T12:35:26;5.30;;;2.05;;
36233;SDS011;43467;50.890;5.982;2023-08-06T12:37:52;4.82;;;1.98;;
36233;SDS011;43467;50.890;5.982;2023-08-06T12:40:20;6.45;;;2.17;;
36233;SDS011;43467;50.890;5.982;2023-08-06T12:42:46;7.35;;;1.80;;
36233;SDS011;43467;50.890;5.982;2023-08-06T12:45:11;2.65;;;1.30;;
36233;SDS011;43467;50.890;5.982;2023-08-06T12:47:37;5.75;;;1.58;;
36233;SDS011;43467;50.890;5.982;2023-08-06T12:50:05;6.95;;;2.10;;
36233;SDS011;43467;50.890;5.982;2023-08-06T12:52:31;5.47;;;1.55;;
36233;SDS011;43467;50.890;5.982;2023-08-06T12:54:57;3.65;;;1.58;;
36233;SDS011;43467;50.890;5.982;2023-08-06T12:57:23;6.90;;;2.08;;
36233;SDS011;43467;50.890;5.982;2023-08-06T12:59:50;8.88;;;2.05;;
36233;SDS011;43467;50.890;5.982;2023-08-06T13:02:16;8.77;;;1.88;;
36233;SDS011;43467;50.890;5.982;2023-08-06T13:04:41;7.60;;;2.20;;
36233;SDS011;43467;50.890;5.982;2023-08-06T13:07:07;5.25;;;1.90;;
36233;SDS011;43467;50.890;5.982;2023-08-06T13:09:34;6.65;;;1.75;;
36233;SDS011;43467;50.890;5.982;2023-08-06T13:12:00;4.70;;;1.88;;
36233;SDS011;43467;50.890;5.982;2023-08-06T13:14:31;5.18;;;1.40;;
36233;SDS011;43467;50.890;5.982;2023-08-06T13:16:57;4.45;;;1.55;;
36233;SDS011;43467;50.890;5.982;2023-08-06T13:19:23;3.13;;;1.35;;
36233;SDS011;43467;50.890;5.982;2023-08-06T13:24:17;6.07;;;1.77;;
36233;SDS011;43467;50.890;5.982;2023-08-06T13:26:43;3.08;;;1.15;;
36233;SDS011;43467;50.890;5.982;2023-08-06T13:29:09;4.45;;;1.30;;
36233;SDS011;43467;50.890;5.982;2023-08-06T13:31:36;2.50;;;1.13;;
36233;SDS011;43467;50.890;5.982;2023-08-06T13:34:02;3.65;;;1.05;;
36233;SDS011;43467;50.890;5.982;2023-08-06T13:36:28;2.83;;;1.13;;
36233;SDS011;43467;50.890;5.982;2023-08-06T13:38:54;2.53;;;0.88;;
36233;SDS011;43467;50.890;5.982;2023-08-06T13:41:20;2.60;;;1.00;;
36233;SDS011;43467;50.890;5.982;2023-08-06T13:43:45;3.05;;;1.10;;
36233;SDS011;43467;50.890;5.982;2023-08-06T13:46:11;2.10;;;1.00;;
36233;SDS011;43467;50.890;5.982;2023-08-06T13:48:42;3.35;;;1.30;;
36233;SDS011;43467;50.890;5.982;2023-08-06T13:51:09;5.20;;;1.38;;
36233;SDS011;43467;50.890;5.982;2023-08-06T13:53:36;2.60;;;1.17;;
36233;SDS011;43467;50.890;5.982;2023-08-06T13:56:02;2.83;;;1.20;;
36233;SDS011;43467;50.890;5.982;2023-08-06T13:58:29;3.13;;;1.27;;
36233;SDS011;43467;50.890;5.982;2023-08-06T14:00:54;5.68;;;1.63;;
36233;SDS011;43467;50.890;5.982;2023-08-06T14:03:21;5.47;;;2.50;;
36233;SDS011;43467;50.890;5.982;2023-08-06T14:05:47;5.00;;;1.42;;
36233;SDS011;43467;50.890;5.982;2023-08-06T14:08:13;5.50;;;1.30;;
36233;SDS011;43467;50.890;5.982;2023-08-06T14:10:39;4.03;;;1.10;;
36233;SDS011;43467;50.890;5.982;2023-08-06T14:13:05;5.35;;;1.38;;
36233;SDS011;43467;50.890;5.982;2023-08-06T14:15:30;1.80;;;1.20;;
36233;SDS011;43467;50.890;5.982;2023-08-06T14:17:56;2.38;;;1.10;;
36233;SDS011;43467;50.890;5.982;2023-08-06T14:20:22;1.33;;;1.13;;
36233;SDS011;43467;50.890;5.982;2023-08-06T14:22:50;2.63;;;1.23;;
36233;SDS011;43467;50.890;5.982;2023-08-06T14:25:15;2.60;;;1.25;;
36233;SDS011;43467;50.890;5.982;2023-08-06T14:27:42;1.80;;;1.15;;
36233;SDS011;43467;50.890;5.982;2023-08-06T14:30:08;2.95;;;1.10;;
36233;SDS011;43467;50.890;5.982;2023-08-06T14:32:34;3.08;;;1.27;;
36233;SDS011;43467;50.890;5.982;2023-08-06T14:35:00;4.43;;;1.40;;
36233;SDS011;43467;50.890;5.982;2023-08-06T14:37:25;5.22;;;1.48;;
36233;SDS011;43467;50.890;5.982;2023-08-06T14:39:51;3.35;;;1.08;;
36233;SDS011;43467;50.890;5.982;2023-08-06T14:42:17;1.85;;;0.98;;
36233;SDS011;43467;50.890;5.982;2023-08-06T14:44:43;2.60;;;1.55;;
36233;SDS011;43467;50.890;5.982;2023-08-06T14:47:08;5.82;;;1.15;;
36233;SDS011;43467;50.890;5.982;2023-08-06T14:49:34;4.82;;;1.27;;
36233;SDS011;43467;50.890;5.982;2023-08-06T14:52:00;2.17;;;1.15;;
36233;SDS011;43467;50.890;5.982;2023-08-06T14:54:26;2.85;;;1.20;;